sensor_id;sensor_type;location;lat;lon;timestamp;P1;durP1;ratioP1;P2;durP2;ratioP2
21000;SDS011;10658;50.920;12.238;2022-12-24T00:03:19;2.75;;;1.42;;
21000;SDS011;10658;50.920;12.238;2022-12-24T00:07:20;1.80;;;1.10;;
21000;SDS011;10658;50.920;12.238;2022-12-24T00:11:22;6.57;;;1.70;;
21000;SDS011;10658;50.920;12.238;2022-12-24T00:15:23;5.40;;;1.67;;
21000;SDS011;10658;50.920;12.238;2022-12-24T00:19:24;3.80;;;1.60;;
21000;SDS011;10658;50.920;12.238;2022-12-24T00:23:29;5.63;;;1.60;;
21000;SDS011;10658;50.920;12.238;2022-12-24T00:27:38;4.43;;;1.75;;
21000;SDS011;10658;50.920;12.238;2022-12-24T00:31:40;3.78;;;1.67;;
21000;SDS011;10658;50.920;12.238;2022-12-24T00:35:41;3.30;;;1.60;;
21000;SDS011;10658;50.920;12.238;2022-12-24T00:39:43;4.97;;;1.23;;
21000;SDS011;10658;50.920;12.238;2022-12-24T00:43:45;2.92;;;1.02;;
21000;SDS011;10658;50.920;12.238;2022-12-24T00:47:46;7.68;;;1.50;;
21000;SDS011;10658;50.920;12.238;2022-12-24T00:51:47;3.75;;;1.48;;
21000;SDS011;10658;50.920;12.238;2022-12-24T00:55:51;4.57;;;2.58;;
21000;SDS011;10658;50.920;12.238;2022-12-24T00:59:52;3.15;;;2.03;;
21000;SDS011;10658;50.920;12.238;2022-12-24T01:03:53;5.40;;;1.33;;
21000;SDS011;10658;50.920;12.238;2022-12-24T01:08:17;2.38;;;1.33;;
21000;SDS011;10658;50.920;12.238;2022-12-24T01:12:19;3.92;;;1.67;;
21000;SDS011;10658;50.920;12.238;2022-12-24T01:16:20;4.38;;;1.05;;
21000;SDS011;10658;50.920;12.238;2022-12-24T01:20:22;3.53;;;1.27;;
21000;SDS011;10658;50.920;12.238;2022-12-24T01:24:28;2.15;;;1.58;;
21000;SDS011;10658;50.920;12.238;2022-12-24T01:28:31;3.38;;;1.20;;
21000;SDS011;10658;50.920;12.238;2022-12-24T01:32:33;4.40;;;1.30;;
21000;SDS011;10658;50.920;12.238;2022-12-24T01:36:35;3.60;;;2.17;;
21000;SDS011;10658;50.920;12.238;2022-12-24T01:40:44;3.25;;;1.23;;
21000;SDS011;10658;50.920;12.238;2022-12-24T01:54:05;3.58;;;1.52;;
21000;SDS011;10658;50.920;12.238;2022-12-24T01:58:30;1.98;;;1.30;;
21000;SDS011;10658;50.920;12.238;2022-12-24T02:02:40;1.80;;;1.35;;
21000;SDS011;10658;50.920;12.238;2022-12-24T02:06:48;6.90;;;1.20;;
21000;SDS011;10658;50.920;12.238;2022-12-24T02:10:52;6.68;;;1.67;;
21000;SDS011;10658;50.920;12.238;2022-12-24T02:14:56;3.15;;;1.08;;
21000;SDS011;10658;50.920;12.238;2022-12-24T02:32:32;2.70;;;1.05;;
21000;SDS011;10658;50.920;12.238;2022-12-24T02:36:41;1.83;;;1.08;;
21000;SDS011;10658;50.920;12.238;2022-12-24T02:40:51;2.60;;;0.90;;
21000;SDS011;10658;50.920;12.238;2022-12-24T02:45:06;4.25;;;0.82;;
21000;SDS011;10658;50.920;12.238;2022-12-24T02:49:10;4.55;;;0.90;;
21000;SDS011;10658;50.920;12.238;2022-12-24T02:53:11;1.98;;;0.70;;
21000;SDS011;10658;50.920;12.238;2022-12-24T02:57:16;1.65;;;0.90;;
21000;SDS011;10658;50.920;12.238;2022-12-24T03:01:33;2.75;;;1.45;;
21000;SDS011;10658;50.920;12.238;2022-12-24T03:06:13;2.33;;;0.70;;
21000;SDS011;10658;50.920;12.238;2022-12-24T03:10:28;5.00;;;0.85;;
21000;SDS011;10658;50.920;12.238;2022-12-24T03:14:31;4.75;;;0.88;;
21000;SDS011;10658;50.920;12.238;2022-12-24T03:18:36;2.40;;;1.25;;
21000;SDS011;10658;50.920;12.238;2022-12-24T03:22:40;3.13;;;1.30;;
21000;SDS011;10658;50.920;12.238;2022-12-24T03:26:43;3.05;;;1.02;;
21000;SDS011;10658;50.920;12.238;2022-12-24T03:30:46;3.55;;;1.20;;
21000;SDS011;10658;50.920;12.238;2022-12-24T03:34:50;1.95;;;1.25;;
21000;SDS011;10658;50.920;12.238;2022-12-24T03:38:51;3.05;;;1.13;;
21000;SDS011;10658;50.920;12.238;2022-12-24T03:42:53;3.63;;;1.38;;
21000;SDS011;10658;50.920;12.238;2022-12-24T03:46:54;5.18;;;1.38;;
21000;SDS011;10658;50.920;12.238;2022-12-24T03:50:55;2.83;;;1.02;;
21000;SDS011;10658;50.920;12.238;2022-12-24T03:54:57;5.05;;;1.08;;
21000;SDS011;10658;50.920;12.238;2022-12-24T03:58:58;3.47;;;1.33;;
21000;SDS011;10658;50.920;12.238;2022-12-24T04:03:00;4.38;;;1.20;;
21000;SDS011;10658;50.920;12.238;2022-12-24T04:07:03;3.03;;;1.33;;
21000;SDS011;10658;50.920;12.238;2022-12-24T04:11:05;5.13;;;1.65;;
21000;SDS011;10658;50.920;12.238;2022-12-24T04:15:08;2.90;;;1.02;;
21000;SDS011;10658;50.920;12.238;2022-12-24T04:19:10;7.65;;;1.20;;
21000;SDS011;10658;50.920;12.238;2022-12-24T04:23:11;2.38;;;1.30;;
21000;SDS011;10658;50.920;12.238;2022-12-24T04:27:13;5.82;;;1.65;;
21000;SDS011;10658;50.920;12.238;2022-12-24T04:31:15;4.43;;;1.27;;
21000;SDS011;10658;50.920;12.238;2022-12-24T04:35:17;3.47;;;1.10;;
21000;SDS011;10658;50.920;12.238;2022-12-24T04:39:21;8.52;;;1.23;;
21000;SDS011;10658;50.920;12.238;2022-12-24T04:43:26;6.13;;;1.30;;
21000;SDS011;10658;50.920;12.238;2022-12-24T04:47:28;3.60;;;1.10;;
21000;SDS011;10658;50.920;12.238;2022-12-24T04:51:30;3.88;;;1.15;;
21000;SDS011;10658;50.920;12.238;2022-12-24T04:55:32;4.10;;;1.08;;
21000;SDS011;10658;50.920;12.238;2022-12-24T04:59:34;3.50;;;1.27;;
21000;SDS011;10658;50.920;12.238;2022-12-24T05:03:36;7.63;;;1.60;;
21000;SDS011;10658;50.920;12.238;2022-12-24T05:07:37;5.13;;;1.33;;
21000;SDS011;10658;50.920;12.238;2022-12-24T05:11:38;6.30;;;1.33;;
21000;SDS011;10658;50.920;12.238;2022-12-24T05:15:40;5.50;;;1.45;;
21000;SDS011;10658;50.920;12.238;2022-12-24T05:19:41;3.97;;;1.20;;
21000;SDS011;10658;50.920;12.238;2022-12-24T05:23:46;4.10;;;1.38;;
21000;SDS011;10658;50.920;12.238;2022-12-24T05:28:07;5.60;;;1.23;;
21000;SDS011;10658;50.920;12.238;2022-12-24T05:32:08;8.30;;;1.70;;
21000;SDS011;10658;50.920;12.238;2022-12-24T05:36:09;6.55;;;1.73;;
21000;SDS011;10658;50.920;12.238;2022-12-24T05:40:11;5.18;;;1.10;;
21000;SDS011;10658;50.920;12.238;2022-12-24T05:44:12;5.22;;;1.45;;
21000;SDS011;10658;50.920;12.238;2022-12-24T05:48:15;5.38;;;1.90;;
21000;SDS011;10658;50.920;12.238;2022-12-24T05:52:16;5.35;;;1.52;;
21000;SDS011;10658;50.920;12.238;2022-12-24T05:56:18;3.58;;;1.42;;
21000;SDS011;10658;50.920;12.238;2022-12-24T06:00:23;5.50;;;1.30;;
21000;SDS011;10658;50.920;12.238;2022-12-24T06:04:25;7.93;;;2.15;;
21000;SDS011;10658;50.920;12.238;2022-12-24T06:08:26;5.43;;;1.67;;
21000;SDS011;10658;50.920;12.238;2022-12-24T06:12:28;3.63;;;1.60;;
21000;SDS011;10658;50.920;12.238;2022-12-24T06:16:29;7.57;;;1.75;;
21000;SDS011;10658;50.920;12.238;2022-12-24T06:20:30;3.88;;;1.23;;
21000;SDS011;10658;50.920;12.238;2022-12-24T06:24:32;5.78;;;1.67;;
21000;SDS011;10658;50.920;12.238;2022-12-24T06:28:35;3.38;;;1.02;;
21000;SDS011;10658;50.920;12.238;2022-12-24T06:32:39;6.10;;;1.33;;
21000;SDS011;10658;50.920;12.238;2022-12-24T06:36:40;4.63;;;1.08;;
21000;SDS011;10658;50.920;12.238;2022-12-24T06:40:42;4.13;;;1.33;;
21000;SDS011;10658;50.920;12.238;2022-12-24T06:44:45;6.53;;;1.65;;
21000;SDS011;10658;50.920;12.238;2022-12-24T06:48:46;4.38;;;1.85;;
21000;SDS011;10658;50.920;12.238;2022-12-24T06:52:47;3.42;;;1.65;;
21000;SDS011;10658;50.920;12.238;2022-12-24T06:56:49;6.43;;;1.50;;
21000;SDS011;10658;50.920;12.238;2022-12-24T07:00:51;5.13;;;1.02;;
21000;SDS011;10658;50.920;12.238;2022-12-24T07:04:53;5.28;;;1.50;;
21000;SDS011;10658;50.920;12.238;2022-12-24T07:08:54;3.92;;;1.80;;
21000;SDS011;10658;50.920;12.238;2022-12-24T07:12:57;4.53;;;1.27;;
21000;SDS011;10658;50.920;12.238;2022-12-24T07:16:58;4.93;;;2.28;;
21000;SDS011;10658;50.920;12.238;2022-12-24T07:21:01;4.53;;;2.30;;
21000;SDS011;10658;50.920;12.238;2022-12-24T07:25:10;12.00;;;2.88;;
21000;SDS011;10658;50.920;12.238;2022-12-24T07:29:11;6.03;;;2.22;;
21000;SDS011;10658;50.920;12.238;2022-12-24T07:33:13;7.20;;;1.95;;
21000;SDS011;10658;50.920;12.238;2022-12-24T07:37:14;3.25;;;1.73;;
21000;SDS011;10658;50.920;12.238;2022-12-24T07:41:15;5.57;;;2.35;;
21000;SDS011;10658;50.920;12.238;2022-12-24T07:45:17;6.93;;;2.20;;
21000;SDS011;10658;50.920;12.238;2022-12-24T07:49:18;4.15;;;2.08;;
21000;SDS011;10658;50.920;12.238;2022-12-24T07:53:19;4.28;;;3.13;;
21000;SDS011;10658;50.920;12.238;2022-12-24T07:57:21;7.47;;;2.55;;
21000;SDS011;10658;50.920;12.238;2022-12-24T08:01:23;5.95;;;2.58;;
21000;SDS011;10658;50.920;12.238;2022-12-24T08:05:25;8.65;;;3.03;;
21000;SDS011;10658;50.920;12.238;2022-12-24T08:09:26;5.70;;;2.10;;
21000;SDS011;10658;50.920;12.238;2022-12-24T08:13:27;5.57;;;2.47;;
21000;SDS011;10658;50.920;12.238;2022-12-24T08:17:30;5.97;;;2.10;;
21000;SDS011;10658;50.920;12.238;2022-12-24T08:21:30;4.88;;;2.10;;
21000;SDS011;10658;50.920;12.238;2022-12-24T08:25:32;3.55;;;1.67;;
21000;SDS011;10658;50.920;12.238;2022-12-24T08:29:34;5.88;;;2.65;;
21000;SDS011;10658;50.920;12.238;2022-12-24T08:33:35;11.70;;;2.47;;
21000;SDS011;10658;50.920;12.238;2022-12-24T08:37:36;5.07;;;1.88;;
21000;SDS011;10658;50.920;12.238;2022-12-24T08:41:40;5.25;;;2.38;;
21000;SDS011;10658;50.920;12.238;2022-12-24T08:45:41;3.35;;;1.98;;
21000;SDS011;10658;50.920;12.238;2022-12-24T08:49:45;8.57;;;2.78;;
21000;SDS011;10658;50.920;12.238;2022-12-24T08:53:46;8.07;;;2.80;;
21000;SDS011;10658;50.920;12.238;2022-12-24T08:57:47;6.30;;;2.13;;
21000;SDS011;10658;50.920;12.238;2022-12-24T09:01:48;6.15;;;2.40;;
21000;SDS011;10658;50.920;12.238;2022-12-24T09:05:49;6.55;;;2.20;;
21000;SDS011;10658;50.920;12.238;2022-12-24T09:09:54;9.27;;;2.63;;
21000;SDS011;10658;50.920;12.238;2022-12-24T09:13:55;7.70;;;3.05;;
21000;SDS011;10658;50.920;12.238;2022-12-24T09:17:56;6.65;;;2.03;;
21000;SDS011;10658;50.920;12.238;2022-12-24T09:21:57;12.15;;;1.65;;
21000;SDS011;10658;50.920;12.238;2022-12-24T09:26:03;4.88;;;1.70;;
21000;SDS011;10658;50.920;12.238;2022-12-24T09:30:05;2.17;;;1.10;;
21000;SDS011;10658;50.920;12.238;2022-12-24T09:34:08;2.90;;;1.20;;
21000;SDS011;10658;50.920;12.238;2022-12-24T09:38:09;3.53;;;0.98;;
21000;SDS011;10658;50.920;12.238;2022-12-24T09:42:53;3.72;;;1.77;;
21000;SDS011;10658;50.920;12.238;2022-12-24T09:46:54;3.00;;;1.10;;
21000;SDS011;10658;50.920;12.238;2022-12-24T09:51:06;2.97;;;1.30;;
21000;SDS011;10658;50.920;12.238;2022-12-24T09:55:24;3.50;;;1.30;;
21000;SDS011;10658;50.920;12.238;2022-12-24T09:59:34;9.25;;;1.58;;
21000;SDS011;10658;50.920;12.238;2022-12-24T10:03:41;5.25;;;2.20;;
21000;SDS011;10658;50.920;12.238;2022-12-24T10:12:21;5.72;;;2.67;;
21000;SDS011;10658;50.920;12.238;2022-12-24T10:33:35;8.90;;;1.92;;
21000;SDS011;10658;50.920;12.238;2022-12-24T10:37:47;3.45;;;1.58;;
21000;SDS011;10658;50.920;12.238;2022-12-24T10:41:51;4.20;;;1.70;;
21000;SDS011;10658;50.920;12.238;2022-12-24T11:11:58;4.90;;;1.50;;
21000;SDS011;10658;50.920;12.238;2022-12-24T11:20:39;5.25;;;2.95;;
21000;SDS011;10658;50.920;12.238;2022-12-24T11:29:32;1.30;;;1.20;;
21000;SDS011;10658;50.920;12.238;2022-12-24T11:33:44;6.05;;;1.80;;
21000;SDS011;10658;50.920;12.238;2022-12-24T11:42:06;4.43;;;2.22;;
21000;SDS011;10658;50.920;12.238;2022-12-24T11:46:43;3.30;;;1.35;;
21000;SDS011;10658;50.920;12.238;2022-12-24T11:50:50;5.10;;;2.53;;
21000;SDS011;10658;50.920;12.238;2022-12-24T11:59:30;2.05;;;1.58;;
21000;SDS011;10658;50.920;12.238;2022-12-24T12:03:48;1.60;;;1.00;;
21000;SDS011;10658;50.920;12.238;2022-12-24T12:08:12;2.42;;;0.82;;
21000;SDS011;10658;50.920;12.238;2022-12-24T12:12:35;5.22;;;1.55;;
21000;SDS011;10658;50.920;12.238;2022-12-24T12:35:51;2.67;;;1.05;;
21000;SDS011;10658;50.920;12.238;2022-12-24T12:39:57;2.17;;;0.90;;
21000;SDS011;10658;50.920;12.238;2022-12-24T12:57:22;20.58;;;1.55;;
21000;SDS011;10658;50.920;12.238;2022-12-24T13:01:36;2.33;;;1.48;;
21000;SDS011;10658;50.920;12.238;2022-12-24T13:18:56;6.38;;;1.05;;
21000;SDS011;10658;50.920;12.238;2022-12-24T13:23:11;3.15;;;1.23;;
21000;SDS011;10658;50.920;12.238;2022-12-24T13:31:34;4.70;;;1.90;;
21000;SDS011;10658;50.920;12.238;2022-12-24T13:35:37;7.72;;;2.00;;
21000;SDS011;10658;50.920;12.238;2022-12-24T13:44:17;5.85;;;1.30;;
21000;SDS011;10658;50.920;12.238;2022-12-24T13:48:23;8.50;;;1.55;;
21000;SDS011;10658;50.920;12.238;2022-12-24T13:52:29;1.40;;;0.90;;
21000;SDS011;10658;50.920;12.238;2022-12-24T13:56:31;3.78;;;1.02;;
21000;SDS011;10658;50.920;12.238;2022-12-24T14:00:42;7.38;;;1.02;;
21000;SDS011;10658;50.920;12.238;2022-12-24T14:04:58;2.45;;;1.45;;
21000;SDS011;10658;50.920;12.238;2022-12-24T14:09:23;2.70;;;1.80;;
21000;SDS011;10658;50.920;12.238;2022-12-24T14:17:40;1.80;;;1.10;;
21000;SDS011;10658;50.920;12.238;2022-12-24T14:21:51;3.30;;;1.85;;
21000;SDS011;10658;50.920;12.238;2022-12-24T14:25:53;3.97;;;1.13;;
21000;SDS011;10658;50.920;12.238;2022-12-24T14:30:15;4.25;;;1.85;;
21000;SDS011;10658;50.920;12.238;2022-12-24T14:34:19;7.97;;;2.38;;
21000;SDS011;10658;50.920;12.238;2022-12-24T14:38:21;5.82;;;2.20;;
21000;SDS011;10658;50.920;12.238;2022-12-24T14:42:38;2.72;;;2.13;;
21000;SDS011;10658;50.920;12.238;2022-12-24T14:46:43;7.07;;;2.70;;
21000;SDS011;10658;50.920;12.238;2022-12-24T14:59:51;9.10;;;4.03;;
21000;SDS011;10658;50.920;12.238;2022-12-24T15:08:12;7.45;;;3.75;;
21000;SDS011;10658;50.920;12.238;2022-12-24T15:12:18;5.85;;;3.42;;
21000;SDS011;10658;50.920;12.238;2022-12-24T15:16:31;7.82;;;3.22;;
21000;SDS011;10658;50.920;12.238;2022-12-24T15:20:36;7.30;;;2.95;;
21000;SDS011;10658;50.920;12.238;2022-12-24T15:24:45;8.63;;;3.53;;
21000;SDS011;10658;50.920;12.238;2022-12-24T15:28:47;9.57;;;5.38;;
21000;SDS011;10658;50.920;12.238;2022-12-24T15:32:50;15.98;;;7.25;;
21000;SDS011;10658;50.920;12.238;2022-12-24T15:37:27;5.55;;;2.90;;
21000;SDS011;10658;50.920;12.238;2022-12-24T15:41:38;9.75;;;1.85;;
21000;SDS011;10658;50.920;12.238;2022-12-24T15:46:01;8.95;;;1.85;;
21000;SDS011;10658;50.920;12.238;2022-12-24T15:50:08;5.72;;;1.70;;
21000;SDS011;10658;50.920;12.238;2022-12-24T15:54:23;5.85;;;1.88;;
21000;SDS011;10658;50.920;12.238;2022-12-24T15:58:29;2.60;;;1.50;;
21000;SDS011;10658;50.920;12.238;2022-12-24T16:02:34;7.18;;;1.83;;
21000;SDS011;10658;50.920;12.238;2022-12-24T16:15:19;2.35;;;1.70;;
21000;SDS011;10658;50.920;12.238;2022-12-24T16:19:21;4.20;;;1.98;;
21000;SDS011;10658;50.920;12.238;2022-12-24T16:23:35;10.27;;;2.85;;
21000;SDS011;10658;50.920;12.238;2022-12-24T16:28:00;5.75;;;2.70;;
21000;SDS011;10658;50.920;12.238;2022-12-24T16:32:26;7.53;;;5.07;;
21000;SDS011;10658;50.920;12.238;2022-12-24T16:51:19;4.32;;;2.30;;
21000;SDS011;10658;50.920;12.238;2022-12-24T16:55:41;4.63;;;2.90;;
21000;SDS011;10658;50.920;12.238;2022-12-24T17:00:31;5.85;;;3.75;;
21000;SDS011;10658;50.920;12.238;2022-12-24T17:10:25;6.55;;;3.22;;
21000;SDS011;10658;50.920;12.238;2022-12-24T17:19:37;7.40;;;2.80;;
21000;SDS011;10658;50.920;12.238;2022-12-24T17:23:41;7.07;;;2.78;;
21000;SDS011;10658;50.920;12.238;2022-12-24T17:27:42;6.03;;;2.42;;
21000;SDS011;10658;50.920;12.238;2022-12-24T17:31:44;8.88;;;2.70;;
21000;SDS011;10658;50.920;12.238;2022-12-24T17:35:46;6.15;;;2.42;;
21000;SDS011;10658;50.920;12.238;2022-12-24T17:39:49;7.57;;;3.03;;
21000;SDS011;10658;50.920;12.238;2022-12-24T17:43:50;9.38;;;2.80;;
21000;SDS011;10658;50.920;12.238;2022-12-24T17:47:52;8.65;;;4.88;;
21000;SDS011;10658;50.920;12.238;2022-12-24T17:51:53;7.07;;;2.90;;
21000;SDS011;10658;50.920;12.238;2022-12-24T17:55:54;5.03;;;2.53;;
21000;SDS011;10658;50.920;12.238;2022-12-24T17:59:55;4.93;;;2.17;;
21000;SDS011;10658;50.920;12.238;2022-12-24T18:03:58;4.65;;;2.40;;
21000;SDS011;10658;50.920;12.238;2022-12-24T18:08:01;6.20;;;2.33;;
21000;SDS011;10658;50.920;12.238;2022-12-24T18:12:03;6.18;;;2.42;;
21000;SDS011;10658;50.920;12.238;2022-12-24T18:16:12;8.23;;;2.90;;
21000;SDS011;10658;50.920;12.238;2022-12-24T18:20:13;4.63;;;2.15;;
21000;SDS011;10658;50.920;12.238;2022-12-24T18:24:15;3.97;;;2.10;;
21000;SDS011;10658;50.920;12.238;2022-12-24T18:28:16;7.32;;;2.83;;
21000;SDS011;10658;50.920;12.238;2022-12-24T18:32:18;4.35;;;2.22;;
21000;SDS011;10658;50.920;12.238;2022-12-24T18:36:21;7.45;;;3.70;;
21000;SDS011;10658;50.920;12.238;2022-12-24T18:40:23;8.43;;;4.38;;
21000;SDS011;10658;50.920;12.238;2022-12-24T18:44:25;8.20;;;4.53;;
21000;SDS011;10658;50.920;12.238;2022-12-24T18:48:27;13.00;;;4.85;;
21000;SDS011;10658;50.920;12.238;2022-12-24T19:18:12;3.78;;;2.35;;
21000;SDS011;10658;50.920;12.238;2022-12-24T19:23:14;5.25;;;1.58;;
21000;SDS011;10658;50.920;12.238;2022-12-24T19:28:45;4.22;;;1.92;;
21000;SDS011;10658;50.920;12.238;2022-12-24T19:33:16;10.00;;;4.60;;
21000;SDS011;10658;50.920;12.238;2022-12-24T19:38:26;5.55;;;3.22;;
21000;SDS011;10658;50.920;12.238;2022-12-24T19:42:34;5.05;;;2.97;;
21000;SDS011;10658;50.920;12.238;2022-12-24T19:46:39;6.70;;;3.50;;
21000;SDS011;10658;50.920;12.238;2022-12-24T19:50:46;4.72;;;3.38;;
21000;SDS011;10658;50.920;12.238;2022-12-24T19:55:43;2.78;;;2.35;;
21000;SDS011;10658;50.920;12.238;2022-12-24T20:22:20;1.83;;;1.27;;
21000;SDS011;10658;50.920;12.238;2022-12-24T20:26:26;2.22;;;1.77;;
21000;SDS011;10658;50.920;12.238;2022-12-24T20:30:29;4.03;;;1.58;;
21000;SDS011;10658;50.920;12.238;2022-12-24T20:34:30;3.70;;;1.92;;
21000;SDS011;10658;50.920;12.238;2022-12-24T20:38:31;3.20;;;2.00;;
21000;SDS011;10658;50.920;12.238;2022-12-24T20:42:33;5.07;;;2.35;;
21000;SDS011;10658;50.920;12.238;2022-12-24T20:46:35;3.78;;;2.28;;
21000;SDS011;10658;50.920;12.238;2022-12-24T20:50:39;3.22;;;2.20;;
21000;SDS011;10658;50.920;12.238;2022-12-24T20:54:41;6.78;;;2.55;;
21000;SDS011;10658;50.920;12.238;2022-12-24T20:58:44;7.05;;;3.17;;
21000;SDS011;10658;50.920;12.238;2022-12-24T21:02:45;6.18;;;2.83;;
21000;SDS011;10658;50.920;12.238;2022-12-24T21:06:46;4.40;;;2.40;;
21000;SDS011;10658;50.920;12.238;2022-12-24T21:10:47;5.70;;;2.45;;
21000;SDS011;10658;50.920;12.238;2022-12-24T21:15:09;7.07;;;2.92;;
21000;SDS011;10658;50.920;12.238;2022-12-24T21:19:13;4.07;;;3.17;;
21000;SDS011;10658;50.920;12.238;2022-12-24T21:23:16;6.63;;;3.42;;
21000;SDS011;10658;50.920;12.238;2022-12-24T21:27:17;5.65;;;2.92;;
21000;SDS011;10658;50.920;12.238;2022-12-24T21:31:19;5.95;;;2.95;;
21000;SDS011;10658;50.920;12.238;2022-12-24T21:35:21;5.90;;;3.20;;
21000;SDS011;10658;50.920;12.238;2022-12-24T21:39:22;12.30;;;3.40;;
21000;SDS011;10658;50.920;12.238;2022-12-24T21:43:29;6.60;;;2.72;;
21000;SDS011;10658;50.920;12.238;2022-12-24T21:47:34;7.38;;;3.20;;
21000;SDS011;10658;50.920;12.238;2022-12-24T21:51:38;11.02;;;3.58;;
21000;SDS011;10658;50.920;12.238;2022-12-24T21:55:40;6.88;;;3.45;;
21000;SDS011;10658;50.920;12.238;2022-12-24T21:59:45;7.70;;;2.30;;
21000;SDS011;10658;50.920;12.238;2022-12-24T22:04:24;6.70;;;2.83;;
21000;SDS011;10658;50.920;12.238;2022-12-24T22:13:19;6.35;;;2.30;;
21000;SDS011;10658;50.920;12.238;2022-12-24T22:17:20;6.88;;;2.97;;
21000;SDS011;10658;50.920;12.238;2022-12-24T22:21:34;4.43;;;2.28;;
21000;SDS011;10658;50.920;12.238;2022-12-24T22:26:23;5.05;;;2.50;;
21000;SDS011;10658;50.920;12.238;2022-12-24T22:30:28;7.03;;;3.40;;
21000;SDS011;10658;50.920;12.238;2022-12-24T22:34:41;7.72;;;3.22;;
21000;SDS011;10658;50.920;12.238;2022-12-24T22:38:55;7.20;;;3.40;;
21000;SDS011;10658;50.920;12.238;2022-12-24T22:43:00;4.07;;;3.10;;
21000;SDS011;10658;50.920;12.238;2022-12-24T22:47:01;6.35;;;2.80;;
21000;SDS011;10658;50.920;12.238;2022-12-24T22:51:06;5.70;;;2.85;;
21000;SDS011;10658;50.920;12.238;2022-12-24T23:06:27;8.13;;;3.70;;
21000;SDS011;10658;50.920;12.238;2022-12-24T23:16:37;4.63;;;2.90;;
21000;SDS011;10658;50.920;12.238;2022-12-24T23:25:38;7.22;;;4.05;;
21000;SDS011;10658;50.920;12.238;2022-12-24T23:30:08;4.97;;;3.40;;
21000;SDS011;10658;50.920;12.238;2022-12-24T23:39:06;14.20;;;4.97;;
21000;SDS011;10658;50.920;12.238;2022-12-24T23:43:43;8.27;;;3.50;;
21000;SDS011;10658;50.920;12.238;2022-12-24T23:48:26;7.93;;;3.10;;
21000;SDS011;10658;50.920;12.238;2022-12-24T23:53:18;6.63;;;3.33;;
21000;SDS011;10658;50.920;12.238;2022-12-24T23:57:40;5.55;;;3.17;;
